sensor_id;sensor_type;location;lat;lon;timestamp;temperature;humidity
8231;DHT22;4156;50.908;6.974;2022-08-19T00:01:25;23.50;99.90
8231;DHT22;4156;50.908;6.974;2022-08-19T00:03:51;23.50;99.90
8231;DHT22;4156;50.908;6.974;2022-08-19T00:06:17;23.50;99.90
8231;DHT22;4156;50.908;6.974;2022-08-19T00:08:42;23.40;99.90
8231;DHT22;4156;50.908;6.974;2022-08-19T00:11:09;23.40;99.90
8231;DHT22;4156;50.908;6.974;2022-08-19T00:13:35;23.40;99.90
8231;DHT22;4156;50.908;6.974;2022-08-19T00:16:01;23.40;99.90
8231;DHT22;4156;50.908;6.974;2022-08-19T00:18:27;23.40;99.90
8231;DHT22;4156;50.908;6.974;2022-08-19T00:20:53;23.40;99.90
8231;DHT22;4156;50.908;6.974;2022-08-19T00:23:19;23.40;99.90
8231;DHT22;4156;50.908;6.974;2022-08-19T00:25:45;23.30;99.90
8231;DHT22;4156;50.908;6.974;2022-08-19T00:28:10;23.30;99.90
8231;DHT22;4156;50.908;6.974;2022-08-19T00:30:36;23.20;99.90
8231;DHT22;4156;50.908;6.974;2022-08-19T00:33:02;23.20;99.90
8231;DHT22;4156;50.908;6.974;2022-08-19T00:35:27;23.20;99.90
8231;DHT22;4156;50.908;6.974;2022-08-19T00:37:53;23.20;99.90
8231;DHT22;4156;50.908;6.974;2022-08-19T00:40:19;23.20;99.90
8231;DHT22;4156;50.908;6.974;2022-08-19T00:42:45;23.20;99.90
8231;DHT22;4156;50.908;6.974;2022-08-19T00:45:16;23.20;99.90
8231;DHT22;4156;50.908;6.974;2022-08-19T00:47:43;23.20;99.90
8231;DHT22;4156;50.908;6.974;2022-08-19T00:50:10;23.20;99.90
8231;DHT22;4156;50.908;6.974;2022-08-19T00:52:40;23.20;99.90
8231;DHT22;4156;50.908;6.974;2022-08-19T00:55:14;23.20;99.90
8231;DHT22;4156;50.908;6.974;2022-08-19T00:57:43;23.30;99.90
8231;DHT22;4156;50.908;6.974;2022-08-19T01:00:14;23.20;99.90
8231;DHT22;4156;50.908;6.974;2022-08-19T01:02:41;23.20;99.90
8231;DHT22;4156;50.908;6.974;2022-08-19T01:05:19;23.10;99.90
8231;DHT22;4156;50.908;6.974;2022-08-19T01:07:48;23.10;99.90
8231;DHT22;4156;50.908;6.974;2022-08-19T01:10:16;23.10;99.90
8231;DHT22;4156;50.908;6.974;2022-08-19T01:12:45;23.00;99.90
8231;DHT22;4156;50.908;6.974;2022-08-19T01:15:12;23.00;99.90
8231;DHT22;4156;50.908;6.974;2022-08-19T01:17:40;23.00;99.90
8231;DHT22;4156;50.908;6.974;2022-08-19T01:20:10;23.00;99.90
8231;DHT22;4156;50.908;6.974;2022-08-19T01:22:45;23.00;99.90
8231;DHT22;4156;50.908;6.974;2022-08-19T01:25:13;22.90;99.90
8231;DHT22;4156;50.908;6.974;2022-08-19T01:27:45;23.00;99.90
8231;DHT22;4156;50.908;6.974;2022-08-19T01:30:19;22.90;99.90
8231;DHT22;4156;50.908;6.974;2022-08-19T01:32:44;22.90;99.90
8231;DHT22;4156;50.908;6.974;2022-08-19T01:35:12;22.90;99.90
8231;DHT22;4156;50.908;6.974;2022-08-19T01:37:56;22.90;99.90
8231;DHT22;4156;50.908;6.974;2022-08-19T01:40:25;22.80;99.90
8231;DHT22;4156;50.908;6.974;2022-08-19T01:42:52;22.80;99.90
8231;DHT22;4156;50.908;6.974;2022-08-19T01:45:20;22.80;99.90
8231;DHT22;4156;50.908;6.974;2022-08-19T01:47:46;22.80;99.90
8231;DHT22;4156;50.908;6.974;2022-08-19T01:50:12;22.80;99.90
8231;DHT22;4156;50.908;6.974;2022-08-19T01:52:40;22.80;99.90
8231;DHT22;4156;50.908;6.974;2022-08-19T01:55:10;22.80;99.90
8231;DHT22;4156;50.908;6.974;2022-08-19T01:57:37;22.70;99.90
8231;DHT22;4156;50.908;6.974;2022-08-19T02:00:08;22.70;99.90
8231;DHT22;4156;50.908;6.974;2022-08-19T02:02:34;22.70;99.90
8231;DHT22;4156;50.908;6.974;2022-08-19T02:05:00;22.60;99.90
8231;DHT22;4156;50.908;6.974;2022-08-19T02:07:26;22.60;99.90
8231;DHT22;4156;50.908;6.974;2022-08-19T02:09:53;22.60;99.90
8231;DHT22;4156;50.908;6.974;2022-08-19T02:12:20;22.60;99.90
8231;DHT22;4156;50.908;6.974;2022-08-19T02:14:46;22.60;99.90
8231;DHT22;4156;50.908;6.974;2022-08-19T02:17:11;22.60;99.90
8231;DHT22;4156;50.908;6.974;2022-08-19T02:19:37;22.60;99.90
8231;DHT22;4156;50.908;6.974;2022-08-19T02:22:02;22.60;99.90
8231;DHT22;4156;50.908;6.974;2022-08-19T02:24:28;22.50;99.90
8231;DHT22;4156;50.908;6.974;2022-08-19T02:26:54;22.50;99.90
8231;DHT22;4156;50.908;6.974;2022-08-19T02:29:19;22.40;99.90
8231;DHT22;4156;50.908;6.974;2022-08-19T02:31:45;22.40;99.90
8231;DHT22;4156;50.908;6.974;2022-08-19T02:34:10;22.40;99.90
8231;DHT22;4156;50.908;6.974;2022-08-19T02:36:36;22.30;99.90
8231;DHT22;4156;50.908;6.974;2022-08-19T02:39:03;22.30;99.90
8231;DHT22;4156;50.908;6.974;2022-08-19T02:41:30;22.30;99.90
8231;DHT22;4156;50.908;6.974;2022-08-19T02:43:58;22.30;99.90
8231;DHT22;4156;50.908;6.974;2022-08-19T02:46:26;22.30;99.90
8231;DHT22;4156;50.908;6.974;2022-08-19T02:48:55;22.20;99.90
8231;DHT22;4156;50.908;6.974;2022-08-19T02:51:30;22.20;99.90
8231;DHT22;4156;50.908;6.974;2022-08-19T02:53:56;22.20;99.90
8231;DHT22;4156;50.908;6.974;2022-08-19T02:56:22;22.20;99.90
8231;DHT22;4156;50.908;6.974;2022-08-19T02:58:48;22.20;99.90
8231;DHT22;4156;50.908;6.974;2022-08-19T03:01:28;22.20;99.90
8231;DHT22;4156;50.908;6.974;2022-08-19T03:03:54;22.20;99.90
8231;DHT22;4156;50.908;6.974;2022-08-19T03:06:20;22.10;99.90
8231;DHT22;4156;50.908;6.974;2022-08-19T03:08:47;22.10;99.90
8231;DHT22;4156;50.908;6.974;2022-08-19T03:11:15;22.10;99.90
8231;DHT22;4156;50.908;6.974;2022-08-19T03:13:41;22.10;99.90
8231;DHT22;4156;50.908;6.974;2022-08-19T03:16:09;22.10;99.90
8231;DHT22;4156;50.908;6.974;2022-08-19T03:18:35;22.10;99.90
8231;DHT22;4156;50.908;6.974;2022-08-19T03:21:00;22.20;99.90
8231;DHT22;4156;50.908;6.974;2022-08-19T03:23:26;22.20;99.90
8231;DHT22;4156;50.908;6.974;2022-08-19T03:25:53;22.20;99.90
8231;DHT22;4156;50.908;6.974;2022-08-19T03:28:20;22.10;99.90
8231;DHT22;4156;50.908;6.974;2022-08-19T03:31:04;22.10;99.90
8231;DHT22;4156;50.908;6.974;2022-08-19T03:33:31;22.10;99.90
8231;DHT22;4156;50.908;6.974;2022-08-19T03:36:12;22.10;99.90
8231;DHT22;4156;50.908;6.974;2022-08-19T03:38:43;22.10;99.90
8231;DHT22;4156;50.908;6.974;2022-08-19T03:41:11;22.10;99.90
8231;DHT22;4156;50.908;6.974;2022-08-19T03:43:39;22.10;99.90
8231;DHT22;4156;50.908;6.974;2022-08-19T03:46:08;22.10;99.90
8231;DHT22;4156;50.908;6.974;2022-08-19T03:48:35;22.00;99.90
8231;DHT22;4156;50.908;6.974;2022-08-19T03:51:02;22.00;99.90
8231;DHT22;4156;50.908;6.974;2022-08-19T03:53:29;22.00;99.90
8231;DHT22;4156;50.908;6.974;2022-08-19T03:55:56;22.00;99.90
8231;DHT22;4156;50.908;6.974;2022-08-19T03:58:25;22.00;99.90
8231;DHT22;4156;50.908;6.974;2022-08-19T04:00:50;22.00;99.90
8231;DHT22;4156;50.908;6.974;2022-08-19T04:03:16;22.00;99.90
8231;DHT22;4156;50.908;6.974;2022-08-19T04:05:44;21.90;99.90
8231;DHT22;4156;50.908;6.974;2022-08-19T04:08:10;21.90;99.90
8231;DHT22;4156;50.908;6.974;2022-08-19T04:10:36;21.90;99.90
8231;DHT22;4156;50.908;6.974;2022-08-19T04:13:04;21.90;99.90
8231;DHT22;4156;50.908;6.974;2022-08-19T04:15:31;22.00;99.90
8231;DHT22;4156;50.908;6.974;2022-08-19T04:18:01;22.00;99.90
8231;DHT22;4156;50.908;6.974;2022-08-19T04:20:26;22.00;99.90
8231;DHT22;4156;50.908;6.974;2022-08-19T04:22:52;22.00;99.90
8231;DHT22;4156;50.908;6.974;2022-08-19T04:25:17;22.10;99.90
8231;DHT22;4156;50.908;6.974;2022-08-19T04:27:43;22.10;99.90
8231;DHT22;4156;50.908;6.974;2022-08-19T04:30:12;22.10;99.90
8231;DHT22;4156;50.908;6.974;2022-08-19T04:32:38;22.10;99.90
8231;DHT22;4156;50.908;6.974;2022-08-19T04:35:04;22.10;99.90
8231;DHT22;4156;50.908;6.974;2022-08-19T04:37:31;22.10;99.90
8231;DHT22;4156;50.908;6.974;2022-08-19T04:39:58;22.10;99.90
8231;DHT22;4156;50.908;6.974;2022-08-19T04:42:43;22.10;99.90
8231;DHT22;4156;50.908;6.974;2022-08-19T04:45:13;22.20;99.90
8231;DHT22;4156;50.908;6.974;2022-08-19T04:47:41;22.20;99.90
8231;DHT22;4156;50.908;6.974;2022-08-19T04:50:07;22.20;99.90
8231;DHT22;4156;50.908;6.974;2022-08-19T04:52:35;22.20;99.90
8231;DHT22;4156;50.908;6.974;2022-08-19T04:55:00;22.20;99.90
8231;DHT22;4156;50.908;6.974;2022-08-19T04:57:26;22.20;99.90
8231;DHT22;4156;50.908;6.974;2022-08-19T04:59:55;22.30;99.90
8231;DHT22;4156;50.908;6.974;2022-08-19T05:02:21;22.30;99.90
8231;DHT22;4156;50.908;6.974;2022-08-19T05:04:56;22.30;99.90
8231;DHT22;4156;50.908;6.974;2022-08-19T05:07:22;22.30;99.90
8231;DHT22;4156;50.908;6.974;2022-08-19T05:09:47;22.40;99.90
8231;DHT22;4156;50.908;6.974;2022-08-19T05:12:13;22.40;99.90
8231;DHT22;4156;50.908;6.974;2022-08-19T05:14:39;22.40;99.90
8231;DHT22;4156;50.908;6.974;2022-08-19T05:17:04;22.40;99.90
8231;DHT22;4156;50.908;6.974;2022-08-19T05:19:30;22.40;99.90
8231;DHT22;4156;50.908;6.974;2022-08-19T05:22:14;22.40;99.90
8231;DHT22;4156;50.908;6.974;2022-08-19T05:24:58;22.40;99.90
8231;DHT22;4156;50.908;6.974;2022-08-19T05:27:24;22.40;99.90
8231;DHT22;4156;50.908;6.974;2022-08-19T05:29:49;22.30;99.90
8231;DHT22;4156;50.908;6.974;2022-08-19T05:32:15;22.40;99.90
8231;DHT22;4156;50.908;6.974;2022-08-19T05:34:41;22.50;99.90
8231;DHT22;4156;50.908;6.974;2022-08-19T05:37:07;22.50;99.90
8231;DHT22;4156;50.908;6.974;2022-08-19T05:39:35;22.50;99.90
8231;DHT22;4156;50.908;6.974;2022-08-19T05:42:05;22.50;99.90
8231;DHT22;4156;50.908;6.974;2022-08-19T05:44:35;22.50;99.90
8231;DHT22;4156;50.908;6.974;2022-08-19T05:47:02;22.60;99.90
8231;DHT22;4156;50.908;6.974;2022-08-19T05:49:28;22.60;99.90
8231;DHT22;4156;50.908;6.974;2022-08-19T05:51:55;22.60;99.90
8231;DHT22;4156;50.908;6.974;2022-08-19T05:54:21;22.60;99.90
8231;DHT22;4156;50.908;6.974;2022-08-19T05:56:49;22.50;99.90
8231;DHT22;4156;50.908;6.974;2022-08-19T05:59:16;22.50;99.90
8231;DHT22;4156;50.908;6.974;2022-08-19T06:01:44;22.40;99.90
8231;DHT22;4156;50.908;6.974;2022-08-19T06:04:10;22.40;99.90
8231;DHT22;4156;50.908;6.974;2022-08-19T06:06:37;22.30;99.90
8231;DHT22;4156;50.908;6.974;2022-08-19T06:09:04;22.30;99.90
8231;DHT22;4156;50.908;6.974;2022-08-19T06:11:42;22.30;99.90
8231;DHT22;4156;50.908;6.974;2022-08-19T06:14:11;22.40;99.90
8231;DHT22;4156;50.908;6.974;2022-08-19T06:16:39;22.50;99.90
8231;DHT22;4156;50.908;6.974;2022-08-19T06:19:08;22.50;99.90
8231;DHT22;4156;50.908;6.974;2022-08-19T06:21:35;22.60;99.90
8231;DHT22;4156;50.908;6.974;2022-08-19T06:24:04;22.60;99.90
8231;DHT22;4156;50.908;6.974;2022-08-19T06:26:30;22.60;99.90
8231;DHT22;4156;50.908;6.974;2022-08-19T06:28:56;22.70;99.90
8231;DHT22;4156;50.908;6.974;2022-08-19T06:31:26;22.60;99.90
8231;DHT22;4156;50.908;6.974;2022-08-19T06:33:52;22.70;99.90
8231;DHT22;4156;50.908;6.974;2022-08-19T06:36:29;22.70;99.90
8231;DHT22;4156;50.908;6.974;2022-08-19T06:38:58;22.70;99.90
8231;DHT22;4156;50.908;6.974;2022-08-19T06:41:25;22.70;99.90
8231;DHT22;4156;50.908;6.974;2022-08-19T06:43:51;22.80;99.90
8231;DHT22;4156;50.908;6.974;2022-08-19T06:46:18;22.80;99.90
8231;DHT22;4156;50.908;6.974;2022-08-19T06:48:45;22.90;99.90
8231;DHT22;4156;50.908;6.974;2022-08-19T06:51:12;22.90;99.90
8231;DHT22;4156;50.908;6.974;2022-08-19T06:53:41;23.00;99.90
8231;DHT22;4156;50.908;6.974;2022-08-19T06:56:06;23.00;99.90
8231;DHT22;4156;50.908;6.974;2022-08-19T06:58:32;23.10;99.90
8231;DHT22;4156;50.908;6.974;2022-08-19T07:01:00;23.10;99.90
8231;DHT22;4156;50.908;6.974;2022-08-19T07:03:31;23.20;99.90
8231;DHT22;4156;50.908;6.974;2022-08-19T07:06:02;23.20;99.90
8231;DHT22;4156;50.908;6.974;2022-08-19T07:08:27;23.30;99.90
8231;DHT22;4156;50.908;6.974;2022-08-19T07:10:53;23.40;99.90
8231;DHT22;4156;50.908;6.974;2022-08-19T07:13:19;23.40;99.90
8231;DHT22;4156;50.908;6.974;2022-08-19T07:15:47;23.40;99.90
8231;DHT22;4156;50.908;6.974;2022-08-19T07:18:12;23.50;99.90
8231;DHT22;4156;50.908;6.974;2022-08-19T07:20:39;23.50;99.90
8231;DHT22;4156;50.908;6.974;2022-08-19T07:23:05;23.70;99.90
8231;DHT22;4156;50.908;6.974;2022-08-19T07:25:30;23.60;99.90
8231;DHT22;4156;50.908;6.974;2022-08-19T07:27:56;23.60;99.90
8231;DHT22;4156;50.908;6.974;2022-08-19T07:30:21;23.70;99.90
8231;DHT22;4156;50.908;6.974;2022-08-19T07:32:48;23.70;99.90
8231;DHT22;4156;50.908;6.974;2022-08-19T07:35:17;23.70;99.90
8231;DHT22;4156;50.908;6.974;2022-08-19T07:37:45;23.70;99.90
8231;DHT22;4156;50.908;6.974;2022-08-19T07:40:11;23.70;99.90
8231;DHT22;4156;50.908;6.974;2022-08-19T07:42:37;23.80;99.90
8231;DHT22;4156;50.908;6.974;2022-08-19T07:45:04;23.80;99.90
8231;DHT22;4156;50.908;6.974;2022-08-19T07:47:30;23.80;99.90
8231;DHT22;4156;50.908;6.974;2022-08-19T07:49:56;23.80;99.90
8231;DHT22;4156;50.908;6.974;2022-08-19T07:52:22;23.80;99.90
8231;DHT22;4156;50.908;6.974;2022-08-19T07:54:48;23.90;99.90
8231;DHT22;4156;50.908;6.974;2022-08-19T07:57:15;23.90;99.90
8231;DHT22;4156;50.908;6.974;2022-08-19T07:59:41;23.90;99.90
8231;DHT22;4156;50.908;6.974;2022-08-19T08:02:08;23.90;99.90
8231;DHT22;4156;50.908;6.974;2022-08-19T08:04:33;23.90;99.90
8231;DHT22;4156;50.908;6.974;2022-08-19T08:07:18;23.90;99.90
8231;DHT22;4156;50.908;6.974;2022-08-19T08:10:05;23.90;99.90
8231;DHT22;4156;50.908;6.974;2022-08-19T08:12:36;23.90;99.90
8231;DHT22;4156;50.908;6.974;2022-08-19T08:15:09;23.90;99.90
8231;DHT22;4156;50.908;6.974;2022-08-19T08:17:35;23.80;99.90
8231;DHT22;4156;50.908;6.974;2022-08-19T08:20:04;23.90;99.90
8231;DHT22;4156;50.908;6.974;2022-08-19T08:22:32;23.90;99.90
8231;DHT22;4156;50.908;6.974;2022-08-19T08:25:19;23.90;99.90
8231;DHT22;4156;50.908;6.974;2022-08-19T08:27:45;23.90;99.90
8231;DHT22;4156;50.908;6.974;2022-08-19T08:30:19;23.90;99.90
8231;DHT22;4156;50.908;6.974;2022-08-19T08:32:46;23.90;99.90
8231;DHT22;4156;50.908;6.974;2022-08-19T08:35:16;23.90;99.90
8231;DHT22;4156;50.908;6.974;2022-08-19T08:37:43;23.90;99.90
8231;DHT22;4156;50.908;6.974;2022-08-19T08:40:28;23.90;99.90
8231;DHT22;4156;50.908;6.974;2022-08-19T08:43:19;24.00;99.90
8231;DHT22;4156;50.908;6.974;2022-08-19T08:46:10;24.00;99.90
8231;DHT22;4156;50.908;6.974;2022-08-19T08:48:59;24.00;99.90
8231;DHT22;4156;50.908;6.974;2022-08-19T08:51:34;24.10;99.90
8231;DHT22;4156;50.908;6.974;2022-08-19T08:54:02;24.10;99.90
8231;DHT22;4156;50.908;6.974;2022-08-19T08:56:30;24.10;99.90
8231;DHT22;4156;50.908;6.974;2022-08-19T08:59:12;24.10;99.90
8231;DHT22;4156;50.908;6.974;2022-08-19T09:01:40;24.10;99.90
8231;DHT22;4156;50.908;6.974;2022-08-19T09:04:06;24.10;99.90
8231;DHT22;4156;50.908;6.974;2022-08-19T09:06:55;24.10;99.90
8231;DHT22;4156;50.908;6.974;2022-08-19T09:09:30;24.20;99.90
8231;DHT22;4156;50.908;6.974;2022-08-19T09:14:50;24.20;99.90
8231;DHT22;4156;50.908;6.974;2022-08-19T09:17:19;24.30;99.90
8231;DHT22;4156;50.908;6.974;2022-08-19T09:19:58;24.30;99.90
8231;DHT22;4156;50.908;6.974;2022-08-19T09:22:27;24.30;99.90
8231;DHT22;4156;50.908;6.974;2022-08-19T09:24:53;24.30;99.90
8231;DHT22;4156;50.908;6.974;2022-08-19T09:27:20;24.80;99.90
8231;DHT22;4156;50.908;6.974;2022-08-19T09:29:46;25.20;99.90
8231;DHT22;4156;50.908;6.974;2022-08-19T09:32:14;24.80;99.90
8231;DHT22;4156;50.908;6.974;2022-08-19T09:34:39;24.70;99.90
8231;DHT22;4156;50.908;6.974;2022-08-19T09:37:05;24.80;99.90
8231;DHT22;4156;50.908;6.974;2022-08-19T09:39:31;24.80;99.90
8231;DHT22;4156;50.908;6.974;2022-08-19T09:41:57;24.60;99.90
8231;DHT22;4156;50.908;6.974;2022-08-19T09:44:22;24.70;99.90
8231;DHT22;4156;50.908;6.974;2022-08-19T09:46:48;24.70;99.90
8231;DHT22;4156;50.908;6.974;2022-08-19T09:49:15;24.70;99.90
8231;DHT22;4156;50.908;6.974;2022-08-19T09:51:42;24.60;99.90
8231;DHT22;4156;50.908;6.974;2022-08-19T09:54:08;24.70;99.90
8231;DHT22;4156;50.908;6.974;2022-08-19T09:56:34;24.80;99.90
8231;DHT22;4156;50.908;6.974;2022-08-19T09:59:01;24.80;99.90
8231;DHT22;4156;50.908;6.974;2022-08-19T10:01:30;24.80;99.90
8231;DHT22;4156;50.908;6.974;2022-08-19T10:03:57;25.20;99.90
8231;DHT22;4156;50.908;6.974;2022-08-19T10:06:24;25.00;99.90
8231;DHT22;4156;50.908;6.974;2022-08-19T10:08:51;25.10;99.90
8231;DHT22;4156;50.908;6.974;2022-08-19T10:11:18;25.00;99.90
8231;DHT22;4156;50.908;6.974;2022-08-19T10:13:45;25.00;99.90
8231;DHT22;4156;50.908;6.974;2022-08-19T10:16:16;25.00;99.90
8231;DHT22;4156;50.908;6.974;2022-08-19T10:18:44;25.00;99.90
8231;DHT22;4156;50.908;6.974;2022-08-19T10:23:45;25.00;99.90
8231;DHT22;4156;50.908;6.974;2022-08-19T10:26:13;25.10;99.90
8231;DHT22;4156;50.908;6.974;2022-08-19T10:28:39;25.10;99.90
8231;DHT22;4156;50.908;6.974;2022-08-19T10:31:11;25.10;99.90
8231;DHT22;4156;50.908;6.974;2022-08-19T10:33:37;25.00;99.90
8231;DHT22;4156;50.908;6.974;2022-08-19T10:36:09;25.10;99.90
8231;DHT22;4156;50.908;6.974;2022-08-19T10:38:36;25.10;99.90
8231;DHT22;4156;50.908;6.974;2022-08-19T10:41:19;25.10;99.90
8231;DHT22;4156;50.908;6.974;2022-08-19T10:43:45;25.10;99.90
8231;DHT22;4156;50.908;6.974;2022-08-19T10:46:13;25.10;99.90
8231;DHT22;4156;50.908;6.974;2022-08-19T10:48:40;25.20;99.90
8231;DHT22;4156;50.908;6.974;2022-08-19T10:51:07;25.20;99.90
8231;DHT22;4156;50.908;6.974;2022-08-19T10:53:52;25.20;99.90
8231;DHT22;4156;50.908;6.974;2022-08-19T10:56:17;25.20;99.90
8231;DHT22;4156;50.908;6.974;2022-08-19T10:59:03;25.30;99.90
8231;DHT22;4156;50.908;6.974;2022-08-19T11:01:29;25.40;99.90
8231;DHT22;4156;50.908;6.974;2022-08-19T11:03:56;25.40;99.90
8231;DHT22;4156;50.908;6.974;2022-08-19T11:06:23;25.40;99.90
8231;DHT22;4156;50.908;6.974;2022-08-19T11:08:50;25.50;99.90
8231;DHT22;4156;50.908;6.974;2022-08-19T11:11:16;25.60;99.90
8231;DHT22;4156;50.908;6.974;2022-08-19T11:13:42;25.40;99.90
8231;DHT22;4156;50.908;6.974;2022-08-19T11:16:15;25.60;99.90
8231;DHT22;4156;50.908;6.974;2022-08-19T11:18:44;25.70;99.90
8231;DHT22;4156;50.908;6.974;2022-08-19T11:21:19;25.80;99.90
8231;DHT22;4156;50.908;6.974;2022-08-19T11:23:49;25.80;99.90
8231;DHT22;4156;50.908;6.974;2022-08-19T11:26:16;25.80;99.90
8231;DHT22;4156;50.908;6.974;2022-08-19T11:28:43;25.80;99.90
8231;DHT22;4156;50.908;6.974;2022-08-19T11:31:16;25.80;99.90
8231;DHT22;4156;50.908;6.974;2022-08-19T11:33:43;25.80;99.90
8231;DHT22;4156;50.908;6.974;2022-08-19T11:36:08;25.80;99.90
8231;DHT22;4156;50.908;6.974;2022-08-19T11:38:35;25.80;99.90
8231;DHT22;4156;50.908;6.974;2022-08-19T11:41:04;25.80;99.90
8231;DHT22;4156;50.908;6.974;2022-08-19T11:43:30;25.80;99.90
8231;DHT22;4156;50.908;6.974;2022-08-19T11:45:57;25.80;99.90
8231;DHT22;4156;50.908;6.974;2022-08-19T11:48:24;25.80;99.90
8231;DHT22;4156;50.908;6.974;2022-08-19T11:50:51;25.80;99.90
8231;DHT22;4156;50.908;6.974;2022-08-19T11:53:17;25.80;99.90
8231;DHT22;4156;50.908;6.974;2022-08-19T11:55:44;25.80;99.90
8231;DHT22;4156;50.908;6.974;2022-08-19T11:58:11;25.90;99.90
8231;DHT22;4156;50.908;6.974;2022-08-19T12:00:38;25.90;99.90
8231;DHT22;4156;50.908;6.974;2022-08-19T12:03:04;26.00;99.90
8231;DHT22;4156;50.908;6.974;2022-08-19T12:05:30;26.00;99.90
8231;DHT22;4156;50.908;6.974;2022-08-19T12:07:55;26.00;99.90
8231;DHT22;4156;50.908;6.974;2022-08-19T12:10:21;26.10;99.90
8231;DHT22;4156;50.908;6.974;2022-08-19T12:12:47;26.00;99.90
8231;DHT22;4156;50.908;6.974;2022-08-19T12:15:13;26.10;99.90
8231;DHT22;4156;50.908;6.974;2022-08-19T12:17:40;26.10;99.90
8231;DHT22;4156;50.908;6.974;2022-08-19T12:20:08;26.10;99.90
8231;DHT22;4156;50.908;6.974;2022-08-19T12:22:35;26.10;99.90
8231;DHT22;4156;50.908;6.974;2022-08-19T12:25:00;26.10;99.90
8231;DHT22;4156;50.908;6.974;2022-08-19T12:27:26;26.10;99.90
8231;DHT22;4156;50.908;6.974;2022-08-19T12:29:51;26.10;99.90
8231;DHT22;4156;50.908;6.974;2022-08-19T12:32:17;26.20;99.90
8231;DHT22;4156;50.908;6.974;2022-08-19T12:34:43;26.10;99.90
8231;DHT22;4156;50.908;6.974;2022-08-19T12:37:09;26.10;99.90
8231;DHT22;4156;50.908;6.974;2022-08-19T12:39:37;26.20;99.90
8231;DHT22;4156;50.908;6.974;2022-08-19T12:42:03;26.20;99.90
8231;DHT22;4156;50.908;6.974;2022-08-19T12:44:29;26.10;99.90
8231;DHT22;4156;50.908;6.974;2022-08-19T12:46:56;26.10;99.90
8231;DHT22;4156;50.908;6.974;2022-08-19T12:49:22;26.00;99.90
8231;DHT22;4156;50.908;6.974;2022-08-19T12:51:47;26.10;99.90
8231;DHT22;4156;50.908;6.974;2022-08-19T12:54:13;26.10;99.90
8231;DHT22;4156;50.908;6.974;2022-08-19T12:56:40;26.20;99.90
8231;DHT22;4156;50.908;6.974;2022-08-19T12:59:07;26.20;99.90
8231;DHT22;4156;50.908;6.974;2022-08-19T13:01:34;26.20;99.90
8231;DHT22;4156;50.908;6.974;2022-08-19T13:03:59;26.20;99.90
8231;DHT22;4156;50.908;6.974;2022-08-19T13:06:25;26.20;99.90
8231;DHT22;4156;50.908;6.974;2022-08-19T13:08:51;26.30;99.90
8231;DHT22;4156;50.908;6.974;2022-08-19T13:11:19;26.30;99.90
8231;DHT22;4156;50.908;6.974;2022-08-19T13:13:48;26.30;99.90
8231;DHT22;4156;50.908;6.974;2022-08-19T13:16:15;26.30;99.90
8231;DHT22;4156;50.908;6.974;2022-08-19T13:18:42;26.30;99.90
8231;DHT22;4156;50.908;6.974;2022-08-19T13:21:10;26.30;99.90
8231;DHT22;4156;50.908;6.974;2022-08-19T13:23:39;26.40;99.90
8231;DHT22;4156;50.908;6.974;2022-08-19T13:26:07;26.40;99.90
8231;DHT22;4156;50.908;6.974;2022-08-19T13:28:33;26.40;99.90
8231;DHT22;4156;50.908;6.974;2022-08-19T13:31:20;26.40;99.90
8231;DHT22;4156;50.908;6.974;2022-08-19T13:34:05;26.40;99.90
8231;DHT22;4156;50.908;6.974;2022-08-19T13:36:34;26.60;99.90
8231;DHT22;4156;50.908;6.974;2022-08-19T13:39:00;26.50;99.90
8231;DHT22;4156;50.908;6.974;2022-08-19T13:41:26;26.50;99.90
8231;DHT22;4156;50.908;6.974;2022-08-19T13:43:52;26.50;99.90
8231;DHT22;4156;50.908;6.974;2022-08-19T13:46:18;26.50;99.90
8231;DHT22;4156;50.908;6.974;2022-08-19T13:48:46;26.40;99.90
8231;DHT22;4156;50.908;6.974;2022-08-19T13:51:12;26.40;99.90
8231;DHT22;4156;50.908;6.974;2022-08-19T13:53:38;26.40;99.90
8231;DHT22;4156;50.908;6.974;2022-08-19T13:56:14;26.40;99.90
8231;DHT22;4156;50.908;6.974;2022-08-19T13:58:40;26.40;99.90
8231;DHT22;4156;50.908;6.974;2022-08-19T14:01:06;26.50;99.90
8231;DHT22;4156;50.908;6.974;2022-08-19T14:03:33;26.50;99.90
8231;DHT22;4156;50.908;6.974;2022-08-19T14:05:59;26.50;99.90
8231;DHT22;4156;50.908;6.974;2022-08-19T14:08:25;26.50;99.90
8231;DHT22;4156;50.908;6.974;2022-08-19T14:10:55;26.50;99.90
8231;DHT22;4156;50.908;6.974;2022-08-19T14:13:22;26.60;99.90
8231;DHT22;4156;50.908;6.974;2022-08-19T14:15:48;26.60;99.90
8231;DHT22;4156;50.908;6.974;2022-08-19T14:18:16;26.60;99.90
8231;DHT22;4156;50.908;6.974;2022-08-19T14:20:42;26.60;99.90
8231;DHT22;4156;50.908;6.974;2022-08-19T14:23:07;26.50;99.90
8231;DHT22;4156;50.908;6.974;2022-08-19T14:25:33;26.50;99.90
8231;DHT22;4156;50.908;6.974;2022-08-19T14:27:59;26.50;99.90
8231;DHT22;4156;50.908;6.974;2022-08-19T14:30:30;26.50;99.90
8231;DHT22;4156;50.908;6.974;2022-08-19T14:32:58;26.50;99.90
8231;DHT22;4156;50.908;6.974;2022-08-19T14:35:24;26.50;99.90
8231;DHT22;4156;50.908;6.974;2022-08-19T14:37:51;26.30;99.90
8231;DHT22;4156;50.908;6.974;2022-08-19T14:40:19;25.40;99.90
8231;DHT22;4156;50.908;6.974;2022-08-19T14:42:46;24.60;99.90
8231;DHT22;4156;50.908;6.974;2022-08-19T14:45:13;24.30;99.90
8231;DHT22;4156;50.908;6.974;2022-08-19T14:47:39;24.10;99.90
8231;DHT22;4156;50.908;6.974;2022-08-19T14:50:09;23.80;99.90
8231;DHT22;4156;50.908;6.974;2022-08-19T14:52:35;23.70;99.90
8231;DHT22;4156;50.908;6.974;2022-08-19T14:55:01;23.60;99.90
8231;DHT22;4156;50.908;6.974;2022-08-19T14:57:27;23.50;99.90
8231;DHT22;4156;50.908;6.974;2022-08-19T14:59:53;23.40;99.90
8231;DHT22;4156;50.908;6.974;2022-08-19T15:02:18;23.40;99.90
8231;DHT22;4156;50.908;6.974;2022-08-19T15:04:45;23.40;99.90
8231;DHT22;4156;50.908;6.974;2022-08-19T15:07:11;23.50;99.90
8231;DHT22;4156;50.908;6.974;2022-08-19T15:09:36;23.60;99.90
8231;DHT22;4156;50.908;6.974;2022-08-19T15:12:02;23.70;99.90
8231;DHT22;4156;50.908;6.974;2022-08-19T15:14:28;23.70;99.90
8231;DHT22;4156;50.908;6.974;2022-08-19T15:17:04;23.70;99.90
8231;DHT22;4156;50.908;6.974;2022-08-19T15:19:31;23.80;99.90
8231;DHT22;4156;50.908;6.974;2022-08-19T15:21:57;23.90;99.90
8231;DHT22;4156;50.908;6.974;2022-08-19T15:24:23;23.90;99.90
8231;DHT22;4156;50.908;6.974;2022-08-19T15:26:53;24.00;99.90
8231;DHT22;4156;50.908;6.974;2022-08-19T15:29:21;24.00;99.90
8231;DHT22;4156;50.908;6.974;2022-08-19T15:31:50;23.90;99.90
8231;DHT22;4156;50.908;6.974;2022-08-19T15:34:16;23.90;99.90
8231;DHT22;4156;50.908;6.974;2022-08-19T15:36:42;23.80;99.90
8231;DHT22;4156;50.908;6.974;2022-08-19T15:39:08;23.90;99.90
8231;DHT22;4156;50.908;6.974;2022-08-19T15:41:35;23.90;99.90
8231;DHT22;4156;50.908;6.974;2022-08-19T15:44:07;23.90;99.90
8231;DHT22;4156;50.908;6.974;2022-08-19T15:46:37;23.90;99.90
8231;DHT22;4156;50.908;6.974;2022-08-19T15:49:03;23.90;99.90
8231;DHT22;4156;50.908;6.974;2022-08-19T15:51:31;23.90;99.90
8231;DHT22;4156;50.908;6.974;2022-08-19T15:53:58;23.80;99.90
8231;DHT22;4156;50.908;6.974;2022-08-19T15:56:24;23.80;99.90
8231;DHT22;4156;50.908;6.974;2022-08-19T15:58:50;23.90;99.90
8231;DHT22;4156;50.908;6.974;2022-08-19T16:01:34;24.00;99.90
8231;DHT22;4156;50.908;6.974;2022-08-19T16:04:18;23.80;99.90
8231;DHT22;4156;50.908;6.974;2022-08-19T16:07:02;23.80;99.90
8231;DHT22;4156;50.908;6.974;2022-08-19T16:09:30;23.80;99.90
8231;DHT22;4156;50.908;6.974;2022-08-19T16:12:02;23.80;99.90
8231;DHT22;4156;50.908;6.974;2022-08-19T16:14:29;23.90;99.90